Time;durP1;ratioP1;P1;durP2;ratioP2;P2;SDS_P1;SDS_P2;PMS_P1;PMS_P2;Temp;Humidity;BMP_temperature;BMP_pressure;BME280_temperature;BME280_humidity;BME280_pressure;Samples;Min_cycle;Max_cycle;Signal;HPM_P1;HPM_P2
2021/11/22 00:02:20;;;;;;;12.13;10.93;;;3.30;99.90;;;;;;5051173;28;20209;-65
2021/11/22 00:04:45;;;;;;;11.77;10.57;;;3.30;99.90;;;;;;5050578;28;20234;-66
2021/11/22 00:07:12;;;;;;;11.10;10.33;;;3.20;99.90;;;;;;5031113;28;20175;-65
2021/11/22 00:09:38;;;;;;;11.13;10.07;;;3.20;99.90;;;;;;5031094;28;20168;-65
2021/11/22 00:12:04;;;;;;;11.20;10.20;;;3.20;99.90;;;;;;5049112;28;20244;-66
2021/11/22 00:14:30;;;;;;;11.30;10.40;;;3.20;99.90;;;;;;5051090;28;20227;-65
2021/11/22 00:16:56;;;;;;;17.53;10.03;;;3.20;99.90;;;;;;5034425;28;20183;-66
2021/11/22 00:19:22;;;;;;;11.10;10.13;;;3.20;99.90;;;;;;5030761;28;20176;-66
2021/11/22 00:21:48;;;;;;;12.07;11.17;;;3.30;99.90;;;;;;5045290;28;20203;-65
2021/11/22 00:24:13;;;;;;;11.60;10.47;;;3.30;99.90;;;;;;5050820;28;20252;-66
2021/11/22 00:26:39;;;;;;;12.90;11.70;;;3.30;99.90;;;;;;5036561;28;20179;-65
2021/11/22 00:29:04;;;;;;;12.40;10.40;;;3.30;99.90;;;;;;5030494;28;20556;-66
2021/11/22 00:31:30;;;;;;;11.53;10.63;;;3.30;99.90;;;;;;5036974;28;20190;-66
2021/11/22 00:33:56;;;;;;;13.37;12.17;;;3.30;99.90;;;;;;5030694;28;20208;-66
2021/11/22 00:36:22;;;;;;;13.07;12.00;;;3.30;99.90;;;;;;5040869;28;20218;-66
2021/11/22 00:38:48;;;;;;;12.60;11.60;;;3.30;99.90;;;;;;5050592;28;20175;-66
2021/11/22 00:41:14;;;;;;;13.27;12.23;;;3.30;99.90;;;;;;5041615;28;20175;-66
2021/11/22 00:43:39;;;;;;;13.40;12.00;;;3.30;99.90;;;;;;5030757;28;20206;-66
2021/11/22 00:46:05;;;;;;;21.03;12.30;;;3.20;99.90;;;;;;5039858;28;20535;-65
2021/11/22 00:48:31;;;;;;;12.57;11.03;;;3.30;99.90;;;;;;5054108;28;20636;-65
2021/11/22 00:50:57;;;;;;;11.53;10.53;;;3.30;99.90;;;;;;5047616;28;20532;-66
2021/11/22 00:53:23;;;;;;;13.50;10.77;;;3.30;99.90;;;;;;5034167;28;20176;-65
2021/11/22 00:55:49;;;;;;;14.70;12.60;;;3.20;99.90;;;;;;5038229;28;20207;-67
2021/11/22 00:58:14;;;;;;;13.03;11.73;;;3.20;99.90;;;;;;5054032;28;20194;-66
2021/11/22 01:00:41;;;;;;;12.93;11.87;;;3.20;99.90;;;;;;5050996;28;20191;-67
2021/11/22 01:03:07;;;;;;;13.83;11.43;;;3.30;99.90;;;;;;5033948;28;20210;-66
2021/11/22 01:05:32;;;;;;;17.17;11.87;;;3.40;99.90;;;;;;5035728;28;20184;-67
2021/11/22 01:08:00;;;;;;;13.10;10.83;;;3.50;99.90;;;;;;5053871;28;20175;-66
2021/11/22 01:10:26;;;;;;;27.87;11.60;;;3.50;99.90;;;;;;5053327;28;20194;-66
2021/11/22 01:12:52;;;;;;;14.10;10.80;;;3.60;99.90;;;;;;5033822;28;20192;-66
2021/11/22 01:15:21;;;;;;;11.57;10.10;;;3.70;99.90;;;;;;5034003;28;20229;-66
2021/11/22 01:17:48;;;;;;;12.27;11.17;;;3.90;99.90;;;;;;5051945;28;20654;-68
2021/11/22 01:20:18;;;;;;;12.50;11.23;;;4.00;99.90;;;;;;5033443;28;20266;-66
2021/11/22 01:22:44;;;;;;;11.03;10.10;;;4.10;99.90;;;;;;5051143;28;20199;-67
2021/11/22 01:25:11;;;;;;;11.67;9.83;;;4.20;99.90;;;;;;5053598;28;20265;-65
2021/11/22 01:27:37;;;;;;;11.33;10.10;;;4.30;99.90;;;;;;5036365;28;20558;-66
2021/11/22 01:30:11;;;;;;;11.80;10.80;;;4.40;99.90;;;;;;5033264;28;20297;-66
2021/11/22 01:32:38;;;;;;;11.27;10.27;;;4.50;99.90;;;;;;5049803;28;20210;-67
2021/11/22 01:35:04;;;;;;;12.70;11.47;;;4.50;99.90;;;;;;5041582;28;20272;-65
2021/11/22 01:37:30;;;;;;;13.43;10.60;;;4.60;99.90;;;;;;5033617;28;20182;-66
2021/11/22 01:39:56;;;;;;;11.30;10.30;;;4.60;99.90;;;;;;5038823;28;20178;-66
2021/11/22 01:42:21;;;;;;;13.53;10.00;;;4.60;99.90;;;;;;5045033;28;20683;-66
2021/11/22 01:44:47;;;;;;;10.67;9.77;;;4.60;99.90;;;;;;5033085;28;20203;-67
2021/11/22 01:47:13;;;;;;;11.27;10.37;;;4.60;99.90;;;;;;5033257;28;20644;-64
2021/11/22 01:49:38;;;;;;;13.50;11.50;;;4.70;99.90;;;;;;5036722;28;20171;-65
2021/11/22 01:52:05;;;;;;;13.03;11.53;;;4.70;99.90;;;;;;5053072;28;20174;-66
2021/11/22 01:54:30;;;;;;;12.10;10.97;;;4.70;99.90;;;;;;5049264;28;20242;-65
2021/11/22 01:56:58;;;;;;;15.00;11.43;;;4.80;99.90;;;;;;5034117;28;20301;-66
2021/11/22 01:59:24;;;;;;;15.63;11.13;;;4.80;99.90;;;;;;5034413;28;20259;-67
2021/11/22 02:01:50;;;;;;;12.03;10.77;;;4.80;99.90;;;;;;5052936;28;20202;-66
2021/11/22 02:04:16;;;;;;;12.77;11.57;;;4.90;99.90;;;;;;5052303;28;20680;-69
2021/11/22 02:06:42;;;;;;;12.53;11.33;;;4.90;99.90;;;;;;5032797;28;20250;-64
2021/11/22 02:09:08;;;;;;;16.90;11.67;;;5.00;99.90;;;;;;5032490;28;20590;-67
2021/11/22 02:11:34;;;;;;;12.90;11.80;;;5.00;99.90;;;;;;5050927;28;20182;-65
2021/11/22 02:14:01;;;;;;;16.47;12.40;;;5.10;99.90;;;;;;5052653;28;20193;-67
2021/11/22 02:16:26;;;;;;;16.70;11.97;;;5.20;99.90;;;;;;5034557;28;20593;-66
2021/11/22 02:18:52;;;;;;;16.17;12.10;;;5.10;99.90;;;;;;5032484;28;20250;-65
2021/11/22 02:21:18;;;;;;;13.90;12.27;;;5.20;99.90;;;;;;5048017;28;20244;-66
2021/11/22 02:23:44;;;;;;;17.10;12.53;;;5.20;99.90;;;;;;5052425;28;20340;-65
2021/11/22 02:26:10;;;;;;;14.17;12.23;;;5.30;99.90;;;;;;5037949;28;20187;-65
2021/11/22 02:28:36;;;;;;;17.73;12.50;;;5.30;99.90;;;;;;5032488;28;20179;-66
2021/11/22 02:31:02;;;;;;;16.17;11.43;;;5.30;99.90;;;;;;5042975;28;20179;-65
2021/11/22 02:33:27;;;;;;;17.83;12.93;;;5.30;99.90;;;;;;5052280;28;20167;-66
2021/11/22 02:35:57;;;;;;;15.83;11.63;;;5.30;99.90;;;;;;5050554;28;20217;-66
2021/11/22 02:38:27;;;;;;;16.87;14.40;;;5.40;99.90;;;;;;5052186;28;20255;-66
2021/11/22 02:40:53;;;;;;;15.63;13.20;;;5.40;99.90;;;;;;5037556;28;20548;-66
2021/11/22 02:43:19;;;;;;;18.13;14.43;;;5.40;99.90;;;;;;5032054;28;20696;-66
2021/11/22 02:45:45;;;;;;;21.70;15.20;;;5.40;99.90;;;;;;5045149;28;20233;-66
2021/11/22 02:48:11;;;;;;;21.53;15.37;;;5.50;99.90;;;;;;5051980;28;20209;-66
2021/11/22 02:50:36;;;;;;;23.80;15.17;;;5.40;99.90;;;;;;5040154;28;20701;-65
2021/11/22 02:53:03;;;;;;;17.67;13.43;;;5.40;99.90;;;;;;5031970;28;20182;-66
2021/11/22 02:55:29;;;;;;;21.63;14.07;;;5.40;99.90;;;;;;5041518;28;20206;-66
2021/11/22 02:57:54;;;;;;;24.00;15.70;;;5.50;99.90;;;;;;5051692;28;20636;-65
2021/11/22 03:00:23;;;;;;;23.17;15.50;;;5.50;99.90;;;;;;5037702;28;20270;-66
2021/11/22 03:02:50;;;;;;;23.67;15.67;;;5.50;99.90;;;;;;5031693;28;20225;-65
2021/11/22 03:05:16;;;;;;;18.10;14.77;;;5.50;99.90;;;;;;5030939;28;20191;-67
2021/11/22 03:07:43;;;;;;;18.40;14.93;;;5.50;99.90;;;;;;5031564;28;20167;-66
2021/11/22 03:10:12;;;;;;;28.87;16.93;;;5.50;99.90;;;;;;5041545;28;20190;-66
2021/11/22 03:12:37;;;;;;;25.07;15.37;;;5.50;99.90;;;;;;5051629;28;20173;-68
2021/11/22 03:15:08;;;;;;;23.03;15.50;;;5.50;99.90;;;;;;5041738;28;20207;-66
2021/11/22 03:17:33;;;;;;;20.97;16.00;;;5.50;99.90;;;;;;5031784;28;20180;-66
2021/11/22 03:19:59;;;;;;;27.47;16.33;;;5.50;99.90;;;;;;5039399;28;20187;-66
2021/11/22 03:22:24;;;;;;;27.10;18.57;;;5.50;99.90;;;;;;5051579;28;20211;-66
2021/11/22 03:24:50;;;;;;;28.90;17.33;;;5.50;99.90;;;;;;5044901;28;20210;-67
2021/11/22 03:27:15;;;;;;;20.83;17.10;;;5.50;99.90;;;;;;5031560;28;20637;-66
2021/11/22 03:29:41;;;;;;;24.07;16.63;;;5.50;99.90;;;;;;5035582;28;20202;-66
2021/11/22 03:32:07;;;;;;;21.73;17.13;;;5.50;99.90;;;;;;5050084;28;20648;-67
2021/11/22 03:34:33;;;;;;;23.87;16.70;;;5.50;99.90;;;;;;5082349;22;20741;-70
2021/11/22 03:37:02;;;;;;;28.90;16.63;;;5.50;99.90;;;;;;5072417;28;20261;-71
2021/11/22 03:39:30;;;;;;;25.77;16.60;;;5.50;99.90;;;;;;5072194;28;20181;-68
2021/11/22 03:41:59;;;;;;;34.00;17.90;;;5.50;99.90;;;;;;5073051;28;20230;-70
2021/11/22 03:44:24;;;;;;;25.27;17.20;;;5.50;99.90;;;;;;5072168;28;20186;-71
2021/11/22 03:46:53;;;;;;;23.97;17.70;;;5.50;99.90;;;;;;5071280;28;20166;-69
2021/11/22 03:49:19;;;;;;;25.73;16.67;;;5.50;99.90;;;;;;5070840;28;20166;-67
2021/11/22 03:51:45;;;;;;;22.97;14.97;;;5.50;99.90;;;;;;5072847;28;20171;-69
2021/11/22 03:54:11;;;;;;;21.50;16.47;;;5.50;99.90;;;;;;5072625;28;20609;-69
2021/11/22 03:56:38;;;;;;;24.03;16.63;;;5.50;99.90;;;;;;5071764;28;20200;-70
2021/11/22 03:59:05;;;;;;;27.43;18.37;;;5.50;99.90;;;;;;5071135;28;20182;-70
2021/11/22 04:01:31;;;;;;;23.03;16.30;;;5.60;99.90;;;;;;5070271;28;20177;-67
2021/11/22 04:03:57;;;;;;;27.17;17.27;;;5.60;99.90;;;;;;5072266;28;20178;-68
2021/11/22 04:06:22;;;;;;;25.33;17.40;;;5.60;99.90;;;;;;5072286;28;20178;-71
2021/11/22 04:08:48;;;;;;;21.10;15.83;;;5.60;99.90;;;;;;5071078;28;20170;-68
2021/11/22 04:11:14;;;;;;;25.00;16.07;;;5.60;99.90;;;;;;5071751;28;20177;-69
2021/11/22 04:13:40;;;;;;;24.10;15.93;;;5.60;99.90;;;;;;5071218;28;20177;-70
2021/11/22 04:16:06;;;;;;;26.40;16.63;;;5.70;99.90;;;;;;5070535;28;20194;-68
2021/11/22 04:18:32;;;;;;;17.87;14.43;;;5.70;99.90;;;;;;5071021;28;20178;-68
2021/11/22 04:20:58;;;;;;;28.30;17.17;;;5.70;99.90;;;;;;5071854;28;20177;-71
2021/11/22 04:23:24;;;;;;;26.20;17.53;;;5.70;99.90;;;;;;5075995;28;20655;-70
2021/11/22 04:25:50;;;;;;;27.33;16.87;;;5.70;99.90;;;;;;5076022;28;20659;-68
2021/11/22 04:28:15;;;;;;;22.40;16.37;;;5.80;99.90;;;;;;5075903;28;20174;-68
2021/11/22 04:30:42;;;;;;;23.50;15.83;;;5.80;99.90;;;;;;5075659;28;20186;-72
2021/11/22 04:33:08;;;;;;;26.27;15.47;;;5.80;99.90;;;;;;5075743;28;20178;-70
2021/11/22 04:35:34;;;;;;;25.63;16.77;;;5.80;99.90;;;;;;5073615;28;20210;-70
2021/11/22 04:38:00;;;;;;;24.40;16.83;;;5.80;99.90;;;;;;5074538;28;20253;-71
2021/11/22 04:40:26;;;;;;;27.73;18.27;;;5.90;99.90;;;;;;5073933;28;20185;-69
2021/11/22 04:42:53;;;;;;;20.43;16.10;;;5.90;99.90;;;;;;5074313;28;20198;-68
2021/11/22 04:45:23;;;;;;;22.90;16.30;;;5.90;99.90;;;;;;5075077;28;20229;-69
2021/11/22 04:47:50;;;;;;;22.83;16.57;;;5.90;99.90;;;;;;5075688;28;20231;-68
2021/11/22 04:50:17;;;;;;;24.07;15.67;;;5.90;99.90;;;;;;5073754;28;20181;-68
2021/11/22 04:52:44;;;;;;;25.73;15.13;;;5.90;99.90;;;;;;5074666;28;20180;-67
2021/11/22 04:55:11;;;;;;;20.73;15.50;;;5.90;99.90;;;;;;5073601;28;20200;-67
2021/11/22 04:57:37;;;;;;;19.33;15.47;;;5.90;99.90;;;;;;5072834;28;20642;-67
2021/11/22 05:00:04;;;;;;;20.67;13.83;;;5.90;99.90;;;;;;5072385;28;20228;-64
2021/11/22 05:02:30;;;;;;;21.43;15.47;;;6.00;99.90;;;;;;5073931;28;20208;-65
2021/11/22 05:04:55;;;;;;;20.50;14.60;;;6.00;99.90;;;;;;5073666;28;20190;-65
2021/11/22 05:07:21;;;;;;;21.07;14.93;;;6.00;99.90;;;;;;5073547;28;20230;-65
2021/11/22 05:09:46;;;;;;;17.40;14.90;;;6.00;99.90;;;;;;5073726;28;20173;-65
2021/11/22 05:12:12;;;;;;;22.57;15.07;;;6.10;99.90;;;;;;5073683;28;20174;-65
2021/11/22 05:14:38;;;;;;;16.73;14.10;;;6.00;99.90;;;;;;5073931;28;20601;-65
2021/11/22 05:17:04;;;;;;;17.20;14.40;;;6.10;99.90;;;;;;5073499;28;20232;-65
2021/11/22 05:19:30;;;;;;;16.47;13.37;;;6.10;99.90;;;;;;5073673;28;20166;-65
2021/11/22 05:22:00;;;;;;;16.80;13.27;;;6.10;99.90;;;;;;5073617;28;20201;-65
2021/11/22 05:24:28;;;;;;;17.50;14.50;;;6.10;99.90;;;;;;5073683;28;20182;-65
2021/11/22 05:26:55;;;;;;;21.97;13.73;;;6.10;99.90;;;;;;5071990;28;20182;-65
2021/11/22 05:29:20;;;;;;;16.20;13.80;;;6.10;99.90;;;;;;5073407;28;20181;-65
2021/11/22 05:31:46;;;;;;;18.47;13.47;;;6.10;99.90;;;;;;5072999;28;20174;-65
2021/11/22 05:34:12;;;;;;;14.70;13.03;;;6.10;99.90;;;;;;5073316;28;20205;-65
2021/11/22 05:36:38;;;;;;;16.40;13.50;;;6.10;99.90;;;;;;5073323;28;20175;-65
2021/11/22 05:39:05;;;;;;;16.73;14.10;;;6.20;99.90;;;;;;5073202;28;20555;-65
2021/11/22 05:41:30;;;;;;;13.57;12.27;;;6.20;99.90;;;;;;5072224;28;20182;-65
2021/11/22 05:43:56;;;;;;;15.33;13.73;;;6.20;99.90;;;;;;5072710;28;20262;-65
2021/11/22 05:46:22;;;;;;;14.33;12.33;;;6.20;99.90;;;;;;5072875;28;20639;-65
2021/11/22 05:48:48;;;;;;;13.57;12.37;;;6.20;99.90;;;;;;5072822;28;20180;-65
2021/11/22 05:51:13;;;;;;;13.33;12.03;;;6.20;99.90;;;;;;5071265;28;20212;-66
2021/11/22 05:53:41;;;;;;;14.53;13.13;;;6.30;99.90;;;;;;5073050;28;20205;-65
2021/11/22 05:56:07;;;;;;;16.40;14.87;;;6.30;99.90;;;;;;5071793;28;20548;-65
2021/11/22 05:58:34;;;;;;;15.23;13.73;;;6.30;99.90;;;;;;5072624;28;20178;-65
2021/11/22 06:01:05;;;;;;;15.07;13.33;;;6.20;99.90;;;;;;5072561;28;20551;-65
2021/11/22 06:03:31;;;;;;;14.30;12.93;;;6.20;99.90;;;;;;5072504;28;20197;-65
2021/11/22 06:05:57;;;;;;;14.30;12.97;;;6.00;99.90;;;;;;5071333;28;20186;-65
2021/11/22 06:08:24;;;;;;;14.30;12.87;;;5.90;99.90;;;;;;5072622;28;20164;-65
2021/11/22 06:10:50;;;;;;;12.30;11.10;;;5.80;99.90;;;;;;5072603;28;20167;-65
2021/11/22 06:13:20;;;;;;;13.43;12.27;;;5.70;99.90;;;;;;5072350;28;20182;-65
2021/11/22 06:15:47;;;;;;;13.00;11.80;;;5.50;99.90;;;;;;5072627;28;20213;-65
2021/11/22 06:18:13;;;;;;;12.37;11.27;;;5.40;99.90;;;;;;5071221;28;20174;-65
2021/11/22 06:20:39;;;;;;;14.10;12.57;;;5.30;99.90;;;;;;5071951;28;20177;-65
2021/11/22 06:23:06;;;;;;;12.20;11.10;;;5.10;99.90;;;;;;5072201;28;20205;-65
2021/11/22 06:25:32;;;;;;;13.00;11.70;;;5.00;99.90;;;;;;5072261;28;20759;-65
2021/11/22 06:27:58;;;;;;;11.90;10.80;;;4.90;99.90;;;;;;5071026;28;20174;-65
2021/11/22 06:30:25;;;;;;;12.67;11.50;;;4.80;99.90;;;;;;5071879;28;20554;-65
2021/11/22 06:32:53;;;;;;;12.47;11.27;;;4.70;99.90;;;;;;5072393;28;20643;-65
2021/11/22 06:35:20;;;;;;;12.70;11.60;;;4.70;99.90;;;;;;5071653;28;20328;-65
2021/11/22 06:37:47;;;;;;;11.53;10.43;;;4.50;99.90;;;;;;5071141;28;20659;-65
2021/11/22 06:40:13;;;;;;;12.80;11.80;;;4.50;99.90;;;;;;5071553;28;20579;-65
2021/11/22 06:42:38;;;;;;;12.03;10.87;;;4.40;99.90;;;;;;5071514;28;20340;-65
2021/11/22 06:45:06;;;;;;;12.90;11.70;;;4.40;99.90;;;;;;5070067;28;20280;-65
2021/11/22 06:47:33;;;;;;;12.47;11.37;;;4.30;99.90;;;;;;5071716;28;20603;-65
2021/11/22 06:49:59;;;;;;;11.53;10.57;;;4.30;99.90;;;;;;5071471;28;20194;-65
2021/11/22 06:52:25;;;;;;;12.37;11.20;;;4.30;99.90;;;;;;5072055;28;20217;-65
2021/11/22 06:54:52;;;;;;;12.33;11.33;;;4.30;99.90;;;;;;5071783;28;20197;-65
2021/11/22 06:57:18;;;;;;;12.37;11.37;;;4.30;99.90;;;;;;5071585;28;20566;-65
2021/11/22 06:59:44;;;;;;;13.37;12.17;;;4.30;99.90;;;;;;5070263;28;20174;-65
2021/11/22 07:02:16;;;;;;;12.57;11.47;;;4.20;99.90;;;;;;5071503;28;20671;-65
2021/11/22 07:04:43;;;;;;;13.27;11.90;;;4.30;99.90;;;;;;5071824;28;20655;-65
2021/11/22 07:07:09;;;;;;;14.10;12.67;;;4.40;99.90;;;;;;5070017;28;20181;-65
2021/11/22 07:09:35;;;;;;;14.73;13.23;;;4.50;99.90;;;;;;5071761;28;20174;-65
2021/11/22 07:12:03;;;;;;;14.77;13.10;;;4.60;99.90;;;;;;5071314;28;20231;-65
2021/11/22 07:14:29;;;;;;;13.63;12.23;;;4.60;99.90;;;;;;5071578;28;20190;-65
2021/11/22 07:16:54;;;;;;;13.63;12.17;;;4.70;99.90;;;;;;5071339;28;20208;-65
2021/11/22 07:19:20;;;;;;;15.97;13.90;;;4.80;99.90;;;;;;5071286;28;20186;-65
2021/11/22 07:21:46;;;;;;;18.40;14.97;;;4.90;99.90;;;;;;5051694;28;20437;-65
2021/11/22 07:24:12;;;;;;;21.27;14.23;;;5.10;99.90;;;;;;5051529;28;20221;-65
2021/11/22 07:26:38;;;;;;;18.80;14.63;;;5.10;99.90;;;;;;5070330;28;20171;-65
2021/11/22 07:29:04;;;;;;;16.10;14.37;;;5.20;99.90;;;;;;5070023;28;20273;-64
2021/11/22 07:31:30;;;;;;;16.93;14.13;;;5.30;99.90;;;;;;5069519;28;20186;-65
2021/11/22 07:33:56;;;;;;;14.93;13.40;;;5.40;99.90;;;;;;5070990;28;20190;-65
2021/11/22 07:36:22;;;;;;;14.87;12.87;;;5.40;99.90;;;;;;5071148;28;20618;-65
2021/11/22 07:38:47;;;;;;;16.17;13.67;;;5.60;99.90;;;;;;5070933;28;20185;-64
2021/11/22 07:41:13;;;;;;;14.53;12.83;;;5.70;99.90;;;;;;5070279;28;20571;-65
2021/11/22 07:43:39;;;;;;;14.40;12.90;;;5.70;99.90;;;;;;5070826;28;20615;-65
2021/11/22 07:46:05;;;;;;;14.70;13.20;;;5.70;99.90;;;;;;5070943;28;20247;-64
2021/11/22 07:48:31;;;;;;;16.77;12.70;;;5.80;99.90;;;;;;5071028;28;20204;-65
2021/11/22 07:50:58;;;;;;;17.07;14.10;;;5.80;99.90;;;;;;5070770;28;20171;-65
2021/11/22 07:53:24;;;;;;;14.60;13.03;;;5.90;99.90;;;;;;5071140;28;20182;-65
2021/11/22 07:55:49;;;;;;;15.10;13.70;;;5.90;99.90;;;;;;5074495;28;20190;-65
2021/11/22 07:58:15;;;;;;;15.00;13.57;;;6.00;99.90;;;;;;5074821;28;20170;-65
2021/11/22 08:00:41;;;;;;;14.93;13.00;;;6.10;99.90;;;;;;5074793;28;20181;-65
2021/11/22 08:03:06;;;;;;;15.83;13.00;;;6.10;99.90;;;;;;5074602;28;20201;-65
2021/11/22 08:05:33;;;;;;;13.87;12.47;;;6.10;99.90;;;;;;5074904;28;20689;-65
2021/11/22 08:07:59;;;;;;;13.17;11.93;;;6.00;99.90;;;;;;5075062;28;20166;-65
2021/11/22 08:10:28;;;;;;;13.47;12.13;;;5.90;99.90;;;;;;5072762;28;20183;-65
2021/11/22 08:12:57;;;;;;;13.90;12.50;;;6.00;99.90;;;;;;5074798;28;20232;-65
2021/11/22 08:15:23;;;;;;;15.83;12.47;;;6.00;99.90;;;;;;5074357;28;20204;-65
2021/11/22 08:17:50;;;;;;;14.80;13.30;;;6.00;99.90;;;;;;5074828;28;20170;-65
2021/11/22 08:20:17;;;;;;;15.73;14.27;;;6.10;99.90;;;;;;5074156;28;20663;-65
2021/11/22 08:22:45;;;;;;;16.50;14.70;;;6.10;99.90;;;;;;5073543;28;20247;-65
2021/11/22 08:25:12;;;;;;;16.10;14.53;;;6.20;99.90;;;;;;5073732;28;20229;-65
2021/11/22 08:27:39;;;;;;;15.00;13.67;;;6.20;99.90;;;;;;5074654;28;20170;-65
2021/11/22 08:30:11;;;;;;;15.03;13.73;;;6.30;99.90;;;;;;5073369;28;20178;-65
2021/11/22 08:32:37;;;;;;;16.07;14.43;;;6.40;99.90;;;;;;5074461;28;20260;-65
2021/11/22 08:35:04;;;;;;;13.67;12.47;;;6.50;99.90;;;;;;5072587;28;20765;-65
2021/11/22 08:37:30;;;;;;;14.63;13.17;;;6.60;99.90;;;;;;5072998;28;20174;-65
2021/11/22 08:39:56;;;;;;;15.97;14.57;;;6.80;99.90;;;;;;5074076;28;20178;-65
2021/11/22 08:42:22;;;;;;;15.27;13.73;;;6.90;99.90;;;;;;5074351;28;20221;-65
2021/11/22 08:44:49;;;;;;;13.80;12.60;;;7.10;99.90;;;;;;5072193;28;20232;-65
2021/11/22 08:47:15;;;;;;;14.93;13.63;;;7.10;99.90;;;;;;5073771;28;20508;-65
2021/11/22 08:49:42;;;;;;;14.80;13.40;;;7.10;99.90;;;;;;5073588;28;20189;-65
2021/11/22 08:52:09;;;;;;;14.73;13.43;;;7.30;99.90;;;;;;5074101;28;20163;-65
2021/11/22 08:54:35;;;;;;;15.07;13.57;;;7.60;99.90;;;;;;5073483;28;20251;-65
2021/11/22 08:57:01;;;;;;;13.83;12.43;;;7.70;99.90;;;;;;5072615;28;20182;-65
2021/11/22 08:59:26;;;;;;;15.07;13.67;;;7.70;99.90;;;;;;5073538;28;20737;-65
2021/11/22 09:01:52;;;;;;;13.60;12.40;;;7.60;99.90;;;;;;5074066;28;20548;-65
2021/11/22 09:04:18;;;;;;;13.27;12.23;;;7.60;99.90;;;;;;5073173;28;20208;-65
2021/11/22 09:06:43;;;;;;;12.47;11.40;;;7.90;99.90;;;;;;5073085;28;20653;-65
2021/11/22 09:09:10;;;;;;;10.70;9.90;;;8.30;99.90;;;;;;5071810;28;20217;-65
2021/11/22 09:11:39;;;;;;;12.03;10.90;;;8.40;99.90;;;;;;5073714;28;20170;-65
2021/11/22 09:14:04;;;;;;;12.03;11.03;;;8.30;99.90;;;;;;5073391;28;20174;-65
2021/11/22 09:16:30;;;;;;;12.43;11.33;;;8.50;99.90;;;;;;5073668;28;20166;-65
2021/11/22 09:18:59;;;;;;;13.10;11.80;;;8.30;99.90;;;;;;5073363;28;20177;-65
2021/11/22 09:21:26;;;;;;;13.93;12.73;;;8.20;99.90;;;;;;5072364;28;20268;-65
2021/11/22 09:23:52;;;;;;;16.67;12.70;;;7.90;99.90;;;;;;5073237;28;20225;-65
2021/11/22 09:26:18;;;;;;;16.00;14.40;;;7.70;99.90;;;;;;5073442;28;20182;-65
2021/11/22 09:28:45;;;;;;;16.77;14.20;;;7.50;99.90;;;;;;5072003;28;20643;-65
2021/11/22 09:31:12;;;;;;;14.57;13.17;;;7.40;99.90;;;;;;5072878;28;20261;-65
2021/11/22 09:33:38;;;;;;;13.77;12.37;;;7.30;99.90;;;;;;5073390;28;20181;-65
2021/11/22 09:36:04;;;;;;;12.60;11.43;;;7.30;99.90;;;;;;5097464;22;20237;-65
2021/11/22 09:38:30;;;;;;;13.67;12.47;;;7.30;99.90;;;;;;5073299;28;20185;-66
2021/11/22 09:40:57;;;;;;;13.20;12.03;;;7.20;99.90;;;;;;5072957;28;20174;-66
2021/11/22 09:43:24;;;;;;;12.77;11.77;;;7.30;99.90;;;;;;5073123;28;20685;-66
2021/11/22 09:45:51;;;;;;;12.87;11.70;;;7.30;99.90;;;;;;5073077;28;20196;-67
2021/11/22 09:48:17;;;;;;;12.27;11.20;;;7.30;99.90;;;;;;5073077;28;20183;-66
2021/11/22 09:50:43;;;;;;;11.83;10.83;;;7.30;99.90;;;;;;5068390;28;20231;-66
2021/11/22 09:53:09;;;;;;;12.80;11.60;;;7.40;99.90;;;;;;5054080;28;20658;-66
2021/11/22 09:55:36;;;;;;;11.33;10.43;;;7.40;99.90;;;;;;5053337;28;20563;-66
2021/11/22 09:58:05;;;;;;;11.30;10.30;;;7.30;99.90;;;;;;5065051;28;20178;-67
2021/11/22 10:00:39;;;;;;;11.87;10.80;;;7.30;99.90;;;;;;5072756;28;20258;-67
2021/11/22 10:03:11;;;;;;;11.13;10.27;;;7.30;99.90;;;;;;5060109;28;20202;-66
2021/11/22 10:05:40;;;;;;;10.87;9.97;;;7.30;99.90;;;;;;5052760;28;20187;-65
2021/11/22 10:08:08;;;;;;;11.40;10.37;;;7.20;99.90;;;;;;5064276;28;20173;-66
2021/11/22 10:10:34;;;;;;;10.50;9.73;;;7.20;99.90;;;;;;5072634;28;20527;-67
2021/11/22 10:13:01;;;;;;;10.50;9.63;;;7.10;99.90;;;;;;5061871;28;20175;-66
2021/11/22 10:15:31;;;;;;;9.50;8.80;;;7.00;99.90;;;;;;5052768;28;20194;-66
2021/11/22 10:17:57;;;;;;;9.57;8.83;;;7.00;99.90;;;;;;5053939;28;20198;-66
2021/11/22 10:20:23;;;;;;;11.30;10.40;;;7.00;99.90;;;;;;5052964;28;20171;-69
2021/11/22 10:22:51;;;;;;;12.17;11.10;;;7.10;99.90;;;;;;5059713;28;20205;-66
2021/11/22 10:25:27;;;;;;;11.53;10.43;;;7.10;99.90;;;;;;5052515;28;20199;-68
2021/11/22 10:27:58;;;;;;;12.13;11.13;;;7.30;99.90;;;;;;5061183;28;20668;-69
2021/11/22 10:30:27;;;;;;;12.20;10.83;;;7.40;99.90;;;;;;5072238;28;20178;-67
2021/11/22 10:32:58;;;;;;;11.57;10.57;;;7.40;99.90;;;;;;5064167;28;20691;-69
2021/11/22 10:35:26;;;;;;;10.70;9.90;;;7.30;99.90;;;;;;5052026;28;20248;-66
2021/11/22 10:37:58;;;;;;;10.77;9.87;;;7.20;99.90;;;;;;5059600;28;20170;-69
2021/11/22 10:40:26;;;;;;;10.10;9.30;;;7.20;99.90;;;;;;5072015;28;20189;-67
2021/11/22 10:42:52;;;;;;;9.50;8.80;;;7.30;99.90;;;;;;5064212;28;20694;-66
2021/11/22 10:45:23;;;;;;;9.33;8.73;;;7.70;99.90;;;;;;5051685;28;20190;-67
2021/11/22 10:48:16;;;;;;;8.20;7.60;;;8.10;99.90;;;;;;5058642;28;20277;-67
2021/11/22 10:50:50;;;;;;;8.50;7.90;;;8.70;99.90;;;;;;5072023;28;20174;-66
2021/11/22 10:53:29;;;;;;;8.50;7.90;;;9.30;99.90;;;;;;5061463;28;20182;-65
2021/11/22 10:55:55;;;;;;;9.30;8.60;;;10.00;99.90;;;;;;5054126;28;20285;-67
2021/11/22 10:58:35;;;;;;;10.27;9.47;;;10.60;99.90;;;;;;5051716;28;20221;-66
2021/11/22 11:01:20;;;;;;;10.20;9.40;;;10.80;99.90;;;;;;5051667;28;20337;-66
2021/11/22 11:04:00;;;;;;;10.43;9.63;;;10.80;99.90;;;;;;5051654;28;20684;-67
2021/11/22 11:06:34;;;;;;;10.87;9.97;;;10.50;99.90;;;;;;5051730;28;20647;-67
2021/11/22 11:09:00;;;;;;;9.90;9.13;;;9.90;99.90;;;;;;5051383;28;20166;-66
2021/11/22 11:11:26;;;;;;;10.73;9.93;;;9.60;99.90;;;;;;5051561;28;20718;-67
2021/11/22 11:13:52;;;;;;;11.63;10.73;;;9.20;99.90;;;;;;5051766;28;20175;-67
2021/11/22 11:16:20;;;;;;;11.03;10.23;;;9.00;99.90;;;;;;5051623;28;20629;-67
2021/11/22 11:18:57;;;;;;;11.47;10.33;;;8.60;99.90;;;;;;5051606;28;20170;-66
2021/11/22 11:21:51;;;;;;;10.17;9.27;;;8.40;99.90;;;;;;5050110;28;20249;-66
2021/11/22 11:24:18;;;;;;;11.13;9.90;;;8.40;99.90;;;;;;5050748;28;20195;-67
2021/11/22 11:26:46;;;;;;;10.00;9.20;;;8.40;99.90;;;;;;5051497;28;20178;-66
2021/11/22 11:29:13;;;;;;;9.80;9.10;;;8.40;99.90;;;;;;5050697;28;20500;-67
2021/11/22 11:31:39;;;;;;;9.43;8.93;;;8.60;99.90;;;;;;5051478;28;20181;-67
2021/11/22 11:34:13;;;;;;;9.07;8.47;;;8.80;99.90;;;;;;5051478;28;20257;-67
2021/11/22 11:37:12;;;;;;;8.80;8.10;;;8.90;99.90;;;;;;5050622;28;20174;-66
2021/11/22 11:39:59;;;;;;;8.20;7.27;;;9.10;99.90;;;;;;5051032;28;20174;-66
2021/11/22 11:42:40;;;;;;;7.83;7.33;;;9.20;99.90;;;;;;5050182;28;20718;-67
2021/11/22 11:45:19;;;;;;;7.73;7.20;;;9.20;99.90;;;;;;5050933;28;20206;-66
2021/11/22 11:48:18;;;;;;;8.43;7.93;;;9.10;99.90;;;;;;5050106;28;20205;-66
2021/11/22 11:50:44;;;;;;;8.20;7.70;;;8.80;99.90;;;;;;5050322;28;20174;-68
2021/11/22 11:53:15;;;;;;;8.00;7.50;;;8.80;99.90;;;;;;5050797;28;20174;-66
2021/11/22 11:55:44;;;;;;;8.27;7.67;;;8.80;99.90;;;;;;5051099;28;20193;-67
2021/11/22 11:58:25;;;;;;;7.83;7.37;;;9.00;99.90;;;;;;5051043;28;20659;-67
2021/11/22 12:01:04;;;;;;;8.10;7.47;;;9.30;99.90;;;;;;5051035;28;20232;-69
2021/11/22 12:03:51;;;;;;;7.43;6.93;;;9.70;99.90;;;;;;5051190;28;20281;-68
2021/11/22 12:06:50;;;;;;;7.97;7.47;;;9.70;99.90;;;;;;5050667;28;20233;-66
2021/11/22 12:09:27;;;;;;;7.20;6.70;;;9.90;99.90;;;;;;5054390;28;20539;-66
2021/11/22 12:11:53;;;;;;;7.17;6.77;;;10.00;99.90;;;;;;5064110;28;20259;-66
2021/11/22 12:14:59;;;;;;;6.63;6.23;;;10.10;99.90;;;;;;5070205;28;20174;-66
2021/11/22 12:17:33;;;;;;;6.63;6.33;;;10.30;99.90;;;;;;5058945;28;20210;-65
2021/11/22 12:20:09;;;;;;;7.40;7.00;;;9.80;99.90;;;;;;5050521;28;20639;-66
2021/11/22 12:22:45;;;;;;;7.20;6.80;;;9.50;99.90;;;;;;5066881;28;20206;-66
2021/11/22 12:25:37;;;;;;;7.10;6.70;;;9.20;99.90;;;;;;5070710;28;20277;-67
2021/11/22 12:28:05;;;;;;;7.03;6.63;;;9.20;99.90;;;;;;5054817;28;20183;-66
2021/11/22 12:30:31;;;;;;;6.90;6.50;;;9.20;99.90;;;;;;5070964;28;20659;-67
2021/11/22 12:33:25;;;;;;;6.63;6.27;;;9.30;99.90;;;;;;5051624;28;20170;-65
2021/11/22 12:36:01;;;;;;;6.40;6.10;;;9.70;99.90;;;;;;5051065;28;20218;-66
2021/11/22 12:38:28;;;;;;;6.10;5.80;;;10.10;99.90;;;;;;5070790;28;20197;-67
2021/11/22 12:41:03;;;;;;;6.33;5.93;;;10.50;99.90;;;;;;5068778;28;20525;-66
2021/11/22 12:43:48;;;;;;;6.20;5.90;;;10.70;99.90;;;;;;5054189;28;20209;-66
2021/11/22 12:46:22;;;;;;;6.40;5.93;;;11.00;99.90;;;;;;5058635;28;20609;-66